Time;durP1;ratioP1;P1;durP2;ratioP2;P2;SDS_P1;SDS_P2;PMS_P1;PMS_P2;Temp;Humidity;BMP_temperature;BMP_pressure;BME280_temperature;BME280_humidity;BME280_pressure;Samples;Min_cycle;Max_cycle;Signal;HPM_P1;HPM_P2
2023/11/26 00:02:55;;;;;;;56.67;19.80;;;;;;;8.55;100.00;97562.97;31026260;28;20050;-80
2023/11/26 00:17:57;;;;;;;43.83;18.73;;;;;;;8.99;100.00;97549.44;31087335;28;20070;-79
2023/11/26 00:33:00;;;;;;;51.23;17.17;;;;;;;9.01;100.00;97517.22;31071584;28;20050;-80
2023/11/26 00:48:02;;;;;;;36.07;14.20;;;;;;;9.15;100.00;97511.06;31089926;28;20493;-80
2023/11/26 01:03:07;;;;;;;37.87;8.90;;;;;;;9.20;100.00;97485.28;31073804;28;20750;-79
2023/11/26 01:18:09;;;;;;;23.83;7.73;;;;;;;9.10;100.00;97476.53;31016681;28;20062;-80
2023/11/26 01:33:12;;;;;;;108.90;8.93;;;;;;;9.43;100.00;97480.91;31064138;28;20057;-79
2023/11/26 01:48:14;;;;;;;37.63;7.50;;;;;;;9.40;100.00;97479.16;31097540;28;20096;-80
2023/11/26 02:03:16;;;;;;;45.70;8.47;;;;;;;9.18;100.00;97479.59;31052232;28;20050;-80
2023/11/26 02:18:19;;;;;;;23.00;6.40;;;;;;;9.49;100.00;97471.63;31062218;28;20116;-79
2023/11/26 02:33:21;;;;;;;17.63;3.77;;;;;;;9.22;100.00;97472.75;31100358;28;20174;-80
2023/11/26 02:48:24;;;;;;;21.60;4.57;;;;;;;9.14;100.00;97468.97;31060865;28;20053;-78
2023/11/26 03:03:26;;;;;;;44.40;6.13;;;;;;;9.38;100.00;97457.22;31042251;28;20053;-78
2023/11/26 03:18:28;;;;;;;9.07;4.63;;;;;;;9.27;100.00;97443.53;31053844;28;20060;-79
2023/11/26 03:33:30;;;;;;;6.43;3.23;;;;;;;9.22;100.00;97440.28;31058194;28;20058;-78
2023/11/26 03:48:33;;;;;;;4.93;2.90;;;;;;;9.03;100.00;97416.66;31045554;28;20464;-79
2023/11/26 04:03:35;;;;;;;6.30;3.37;;;;;;;9.20;100.00;97410.25;31074523;28;20146;-79
2023/11/26 04:18:37;;;;;;;4.80;2.70;;;;;;;9.14;100.00;97409.44;31040627;28;20055;-79
2023/11/26 04:33:39;;;;;;;9.00;3.37;;;;;;;9.11;100.00;97412.34;31085222;28;20069;-78
2023/11/26 04:48:44;;;;;;;18.57;4.57;;;;;;;9.06;100.00;97421.13;31056211;28;20066;-77
2023/11/26 05:03:46;;;;;;;10.93;3.77;;;;;;;8.71;100.00;97415.72;31108900;28;20069;-77
2023/11/26 05:18:48;;;;;;;13.17;5.30;;;;;;;8.98;100.00;97409.19;31066891;28;20112;-80
2023/11/26 05:33:53;;;;;;;47.70;6.10;;;;;;;9.09;100.00;97395.81;31081548;28;20427;-82
2023/11/26 05:48:55;;;;;;;63.03;7.13;;;;;;;9.14;100.00;97381.63;31074628;28;20061;-80
2023/11/26 06:03:57;;;;;;;170.53;9.67;;;;;;;9.20;100.00;97350.69;31077535;28;20054;-81
2023/11/26 06:19:00;;;;;;;149.67;9.27;;;;;;;9.35;100.00;97311.97;31055582;28;20484;-81
2023/11/26 06:34:03;;;;;;;83.13;6.00;;;;;;;9.49;100.00;97294.88;31035779;28;20101;-80
2023/11/26 06:49:05;;;;;;;184.20;8.83;;;;;;;9.50;100.00;97304.47;31087667;28;20080;-82
2023/11/26 07:04:07;;;;;;;31.50;5.77;;;;;;;9.68;100.00;97317.72;31084244;28;20049;-80
2023/11/26 07:19:09;;;;;;;49.47;6.17;;;;;;;9.74;100.00;97290.66;31069338;28;20059;-82
2023/11/26 07:34:12;;;;;;;41.43;6.93;;;;;;;9.76;100.00;97253.00;31058228;28;20077;-80
2023/11/26 07:49:15;;;;;;;47.77;8.97;;;;;;;10.29;100.00;97228.00;31089528;28;20077;-74
2023/11/26 08:04:17;;;;;;;47.20;10.27;;;;;;;10.44;100.00;97206.84;31102377;28;20231;-78
2023/11/26 08:19:23;;;;;;;92.90;16.67;;;;;;;10.55;100.00;97173.63;31081751;28;20479;-79
2023/11/26 08:34:26;;;;;;;34.17;12.83;;;;;;;10.97;100.00;97123.88;31106020;28;20404;-79
2023/11/26 08:49:30;;;;;;;42.40;15.33;;;;;;;11.19;100.00;97094.03;31090800;28;20096;-80
2023/11/26 09:04:33;;;;;;;36.03;13.17;;;;;;;11.46;100.00;97056.47;31075889;28;20050;-78
2023/11/26 09:19:35;;;;;;;31.07;13.83;;;;;;;11.75;100.00;97031.44;31093546;28;20403;-79
2023/11/26 09:34:37;;;;;;;38.73;15.00;;;;;;;12.02;100.00;96970.09;31066457;28;20399;-77
2023/11/26 09:49:39;;;;;;;44.60;15.83;;;;;;;12.33;100.00;96963.44;31082084;28;20136;-75
2023/11/26 10:04:49;;;;;;;24.80;12.27;;;;;;;12.99;100.00;96909.69;31094072;28;20080;-77
2023/11/26 10:19:52;;;;;;;30.50;11.97;;;;;;;13.48;100.00;96855.16;31062712;28;20543;-78
2023/11/26 10:34:55;;;;;;;27.83;12.23;;;;;;;13.86;100.00;96810.25;31055806;28;20859;-78
2023/11/26 10:50:01;;;;;;;22.63;8.93;;;;;;;14.89;100.00;96759.56;31069458;28;20042;-81
2023/11/26 11:05:07;;;;;;;20.77;7.37;;;;;;;15.85;100.00;96735.09;31072824;28;20088;-78
2023/11/26 11:20:10;;;;;;;16.60;5.50;;;;;;;16.38;100.00;96723.78;31065696;28;20335;-78
2023/11/26 11:35:50;;;;;;;18.00;5.70;;;;;;;16.62;100.00;96714.44;31078791;28;20492;-80
2023/11/26 11:50:54;;;;;;;24.00;6.37;;;;;;;16.41;100.00;96695.34;30586854;29;20058;-81
2023/11/26 12:06:11;;;;;;;15.03;4.83;;;;;;;16.67;100.00;96688.94;30593318;29;20058;-75
2023/11/26 12:21:13;;;;;;;20.27;4.67;;;;;;;16.40;100.00;96658.28;31029377;28;20125;-80
2023/11/26 12:36:16;;;;;;;24.50;5.53;;;;;;;16.30;100.00;96660.78;31107759;28;20141;-79
2023/11/26 12:51:19;;;;;;;20.27;7.40;;;;;;;16.46;100.00;96691.00;31102622;28;20128;-83
2023/11/26 13:06:25;;;;;;;16.57;6.33;;;;;;;16.16;100.00;96727.84;31092337;28;20085;-79
2023/11/26 13:21:28;;;;;;;14.07;6.67;;;;;;;15.84;100.00;96732.88;31117460;28;20061;-80
2023/11/26 13:36:31;;;;;;;9.20;3.33;;;;;;;15.84;100.00;96670.72;31098544;28;20062;-81
2023/11/26 13:51:34;;;;;;;9.20;3.67;;;;;;;15.59;100.00;96705.19;31089023;28;20396;-81
2023/11/26 14:06:36;;;;;;;11.67;3.40;;;;;;;15.53;100.00;96761.94;31098986;28;20137;-81
2023/11/26 14:21:38;;;;;;;4.83;3.13;;;;;;;15.24;100.00;96756.34;31059392;28;20424;-84
2023/11/26 14:36:40;;;;;;;7.83;2.93;;;;;;;15.15;100.00;96759.53;31032133;28;20053;-81
2023/11/26 14:51:42;;;;;;;6.10;4.03;;;;;;;14.59;100.00;96738.84;31087310;28;20061;-81
2023/11/26 15:06:44;;;;;;;9.80;3.90;;;;;;;13.97;100.00;96769.16;31046681;28;20054;-81
2023/11/26 15:21:48;;;;;;;8.50;3.20;;;;;;;13.81;100.00;96699.31;31073306;28;20096;-82
2023/11/26 15:36:50;;;;;;;3.27;1.30;;;;;;;13.51;100.00;96619.78;31046194;28;20145;-83
2023/11/26 15:51:53;;;;;;;6.47;1.67;;;;;;;13.37;100.00;96678.22;31102499;28;20042;-82
2023/11/26 16:06:56;;;;;;;7.23;2.13;;;;;;;13.19;100.00;96642.34;31052893;28;20118;-83
2023/11/26 16:21:58;;;;;;;5.10;1.87;;;;;;;12.89;100.00;96585.34;31064029;28;20141;-79
2023/11/26 16:37:00;;;;;;;4.47;2.40;;;;;;;12.99;100.00;96616.38;31116285;28;20068;-79
2023/11/26 16:52:02;;;;;;;6.03;2.30;;;;;;;12.99;100.00;96545.59;31071645;28;20076;-78
2023/11/26 17:07:06;;;;;;;5.90;2.90;;;;;;;12.80;100.00;96549.59;31073133;28;20058;-80
2023/11/26 17:22:08;;;;;;;3.57;1.57;;;;;;;12.59;100.00;96520.25;31074717;28;20486;-77
2023/11/26 17:37:10;;;;;;;4.23;0.93;;;;;;;12.54;100.00;96466.63;31097323;28;20054;-79
2023/11/26 17:52:13;;;;;;;2.50;1.73;;;;;;;12.51;100.00;96470.41;31079981;28;20041;-79
2023/11/26 18:07:16;;;;;;;4.20;1.10;;;;;;;12.52;100.00;96428.34;31072559;28;20061;-79
2023/11/26 18:22:18;;;;;;;8.40;3.00;;;;;;;10.55;100.00;96541.69;31089208;28;20054;-83
2023/11/26 18:37:22;;;;;;;1.43;1.03;;;;;;;10.14;100.00;96587.75;31113095;28;20046;-85
2023/11/26 18:52:25;;;;;;;4.30;1.53;;;;;;;9.53;100.00;96572.41;31070207;28;20057;-89
2023/11/26 19:07:27;;;;;;;4.17;1.23;;;;;;;9.66;100.00;96548.28;31157298;28;20077;-87
2023/11/26 19:22:31;;;;;;;1.93;1.73;;;;;;;9.92;100.00;96507.28;31048002;28;20157;-83
2023/11/26 19:37:34;;;;;;;2.17;1.13;;;;;;;9.53;100.00;96483.81;31067322;28;20045;-84
2023/11/26 19:52:36;;;;;;;2.93;1.10;;;;;;;9.39;100.00;96402.91;31042400;28;20396;-84
2023/11/26 20:07:54;;;;;;;5.40;0.90;;;;;;;9.35;100.00;96337.47;31067543;28;20047;-83
2023/11/26 20:22:56;;;;;;;4.07;2.37;;;;;;;8.86;100.00;96223.59;31089071;28;20369;-86
2023/11/26 20:37:58;;;;;;;3.67;1.30;;;;;;;8.30;100.00;96185.97;31078826;28;20562;-88
2023/11/26 20:53:00;;;;;;;9.93;1.30;;;;;;;8.87;100.00;96057.41;31093533;28;20046;-80
2023/11/26 21:08:02;;;;;;;7.77;1.87;;;;;;;9.03;100.00;96010.53;31088384;28;20060;-82
2023/11/26 21:23:04;;;;;;;1.90;0.87;;;;;;;8.68;100.00;95938.34;31108250;28;20061;-84
2023/11/26 21:38:06;;;;;;;1.20;1.10;;;;;;;8.55;100.00;95871.34;31116485;28;20072;-86
2023/11/26 21:53:08;;;;;;;2.30;1.10;;;;;;;7.96;100.00;95849.75;31112103;28;20381;-81
2023/11/26 22:08:10;;;;;;;2.37;1.43;;;;;;;7.81;100.00;95818.44;31087981;28;20058;-80
2023/11/26 22:23:12;;;;;;;4.87;1.20;;;;;;;7.60;100.00;95784.97;31070882;28;20128;-78
2023/11/26 22:38:23;;;;;;;1.20;1.00;;;;;;;7.90;100.00;95765.34;31057769;28;20049;-78
2023/11/26 22:53:25;;;;;;;4.37;1.70;;;;;;;8.34;100.00;95775.03;31129045;28;20057;-78
2023/11/26 23:08:28;;;;;;;1.30;1.10;;;;;;;8.81;100.00;95916.09;31063305;28;20092;-79
2023/11/26 23:23:30;;;;;;;3.67;1.13;;;;;;;8.44;100.00;96079.56;31085335;28;20052;-81
2023/11/26 23:38:47;;;;;;;4.00;1.10;;;;;;;7.68;100.00;96296.06;31088150;28;20081;-80
2023/11/26 23:53:52;;;;;;;0.80;0.77;;;;;;;7.14;100.00;96390.63;31052207;28;20067;-79
